Time;durP1;ratioP1;P1;durP2;ratioP2;P2;SDS_P1;SDS_P2;PMS_P1;PMS_P2;Temp;Humidity;BMP_temperature;BMP_pressure;BME280_temperature;BME280_humidity;BME280_pressure;Samples;Min_cycle;Max_cycle;Signal;HPM_P1;HPM_P2
2023/01/17 00:00:27;;;;;;;2.47;1.70;;;;;;;;;;6109907;19;20018;-69
2023/01/17 00:02:35;;;;;;;1.80;1.00;;;;;;;;;;6111007;19;20010;-69
2023/01/17 00:11:38;;;;;;;4.53;1.63;;;;;;;;;;6109393;19;20016;-70
2023/01/17 00:13:43;;;;;;;6.50;1.48;;;;;;;;;;6110180;19;20027;-71
2023/01/17 00:15:47;;;;;;;5.55;1.10;;;;;;;;;;6109676;19;20081;-70
2023/01/17 00:17:53;;;;;;;2.40;1.00;;;;;;;;;;6111368;19;20031;-70
2023/01/17 01:34:29;;;;;;;1.90;1.17;;;;;;;;;;6104252;19;20479;-71
2023/01/17 01:36:34;;;;;;;3.90;1.67;;;;;;;;;;6105877;19;20011;-71
2023/01/17 01:38:39;;;;;;;1.38;1.10;;;;;;;;;;6108722;19;20090;-71
2023/01/17 01:40:45;;;;;;;2.30;1.02;;;;;;;;;;6108168;19;20129;-71
2023/01/17 01:42:52;;;;;;;1.00;0.85;;;;;;;;;;6109062;19;20419;-71
2023/01/17 01:44:57;;;;;;;2.55;1.02;;;;;;;;;;6106902;19;20686;-72
2023/01/17 01:47:04;;;;;;;8.25;1.60;;;;;;;;;;6105059;19;20014;-71
2023/01/17 01:49:19;;;;;;;2.22;1.80;;;;;;;;;;6102087;19;20070;-70
2023/01/17 01:51:28;;;;;;;5.57;1.58;;;;;;;;;;6102932;19;20015;-71
2023/01/17 01:53:34;;;;;;;3.08;1.35;;;;;;;;;;6099879;19;20018;-72
2023/01/17 01:55:44;;;;;;;5.93;1.50;;;;;;;;;;6104622;19;20013;-71
2023/01/17 01:57:51;;;;;;;3.05;1.00;;;;;;;;;;6103848;19;20017;-72
2023/01/17 02:00:00;;;;;;;5.50;1.30;;;;;;;;;;6105361;19;20677;-71
2023/01/17 02:02:05;;;;;;;2.30;1.08;;;;;;;;;;6104464;19;20326;-71
2023/01/17 02:04:14;;;;;;;1.85;1.02;;;;;;;;;;6103418;19;20352;-71
2023/01/17 02:06:29;;;;;;;1.83;0.95;;;;;;;;;;6099309;19;20506;-71
2023/01/17 02:08:34;;;;;;;4.00;1.08;;;;;;;;;;6099681;19;20110;-71
2023/01/17 02:10:43;;;;;;;1.27;0.73;;;;;;;;;;6099048;19;20110;-71
2023/01/17 02:12:48;;;;;;;2.95;0.95;;;;;;;;;;6100534;19;20303;-71
2023/01/17 02:14:53;;;;;;;5.57;1.23;;;;;;;;;;6101200;19;20639;-71
2023/01/17 02:17:10;;;;;;;2.83;1.23;;;;;;;;;;6100127;19;20018;-71
2023/01/17 02:19:53;;;;;;;1.23;0.90;;;;;;;;;;6099117;19;20022;-70
2023/01/17 02:22:08;;;;;;;1.42;1.10;;;;;;;;;;6102679;19;20011;-72
2023/01/17 02:24:49;;;;;;;5.63;1.10;;;;;;;;;;6099178;19;20015;-72
2023/01/17 02:27:06;;;;;;;1.48;1.17;;;;;;;;;;6101384;19;20014;-72
2023/01/17 02:29:49;;;;;;;5.18;1.08;;;;;;;;;;6075557;19;20009;-72
2023/01/17 02:32:00;;;;;;;1.92;1.08;;;;;;;;;;6104263;19;20043;-71
2023/01/17 02:34:09;;;;;;;1.10;1.10;;;;;;;;;;6103753;19;20010;-71
2023/01/17 02:36:20;;;;;;;4.18;1.30;;;;;;;;;;6099452;19;20049;-71
2023/01/17 02:38:41;;;;;;;2.75;1.15;;;;;;;;;;6102139;19;20526;-71
2023/01/17 02:40:49;;;;;;;1.10;0.98;;;;;;;;;;6102381;19;20014;-71
2023/01/17 02:42:56;;;;;;;1.98;1.25;;;;;;;;;;6101713;19;20792;-71
2023/01/17 02:45:06;;;;;;;2.20;1.23;;;;;;;;;;6102769;19;20010;-71
2023/01/17 02:47:25;;;;;;;1.17;1.08;;;;;;;;;;6095550;19;20038;-72
2023/01/17 02:49:32;;;;;;;2.55;1.23;;;;;;;;;;6103326;19;20071;-70
2023/01/17 02:51:54;;;;;;;0.98;0.90;;;;;;;;;;6103835;19;20010;-70
2023/01/17 02:54:12;;;;;;;3.20;1.55;;;;;;;;;;6104238;19;20081;-71
2023/01/17 02:56:30;;;;;;;4.28;1.20;;;;;;;;;;6100589;19;20024;-71
2023/01/17 02:58:56;;;;;;;2.17;1.13;;;;;;;;;;6101893;19;20731;-71
2023/01/17 03:01:06;;;;;;;6.43;1.35;;;;;;;;;;6103962;19;20028;-71
2023/01/17 03:03:22;;;;;;;2.00;1.02;;;;;;;;;;6095308;19;20007;-71
2023/01/17 03:05:33;;;;;;;2.60;1.77;;;;;;;;;;6099217;19;20030;-73
2023/01/17 03:07:38;;;;;;;1.33;0.88;;;;;;;;;;6102864;19;20046;-70
2023/01/17 03:09:44;;;;;;;2.53;1.08;;;;;;;;;;6101289;19;20014;-71
2023/01/17 03:11:49;;;;;;;4.20;1.02;;;;;;;;;;6100390;19;20014;-71
2023/01/17 03:13:56;;;;;;;2.40;1.20;;;;;;;;;;6103323;19;20395;-70
2023/01/17 03:16:02;;;;;;;4.35;1.10;;;;;;;;;;6100949;19;20022;-70
2023/01/17 03:18:10;;;;;;;1.75;1.17;;;;;;;;;;6099684;19;20094;-70
2023/01/17 03:20:19;;;;;;;3.65;1.42;;;;;;;;;;6099801;19;20025;-72
2023/01/17 03:22:26;;;;;;;1.58;1.40;;;;;;;;;;6101255;19;20010;-72
2023/01/17 03:24:33;;;;;;;4.03;1.08;;;;;;;;;;6100602;19;20015;-72
2023/01/17 03:26:37;;;;;;;1.05;0.95;;;;;;;;;;6099473;19;20007;-72
2023/01/17 03:28:43;;;;;;;2.83;1.00;;;;;;;;;;6097191;19;20021;-71
2023/01/17 03:30:50;;;;;;;5.78;2.35;;;;;;;;;;6098911;19;20022;-71
2023/01/17 03:32:55;;;;;;;5.70;1.85;;;;;;;;;;6098207;19;20015;-72
2023/01/17 03:35:00;;;;;;;3.97;1.20;;;;;;;;;;6101299;19;20011;-71
2023/01/17 03:37:08;;;;;;;1.67;1.20;;;;;;;;;;6103250;19;20624;-69
2023/01/17 03:39:13;;;;;;;2.60;0.93;;;;;;;;;;6100052;19;20685;-69
2023/01/17 03:41:18;;;;;;;3.50;1.15;;;;;;;;;;6101673;19;20023;-71
2023/01/17 03:43:23;;;;;;;1.52;1.00;;;;;;;;;;6102786;19;20043;-70
2023/01/17 03:45:28;;;;;;;2.70;1.05;;;;;;;;;;6101413;19;20015;-71
2023/01/17 03:47:33;;;;;;;4.38;1.48;;;;;;;;;;6098292;19;20013;-70
2023/01/17 03:49:39;;;;;;;1.88;1.10;;;;;;;;;;6097907;19;20018;-72
2023/01/17 03:51:44;;;;;;;4.68;1.35;;;;;;;;;;6101182;19;20010;-71
2023/01/17 03:53:52;;;;;;;3.38;1.25;;;;;;;;;;6101636;19;20021;-70
2023/01/17 03:55:57;;;;;;;2.33;1.30;;;;;;;;;;6100708;19;20215;-70
2023/01/17 03:58:03;;;;;;;5.63;1.48;;;;;;;;;;6102590;19;20042;-71
2023/01/17 04:00:11;;;;;;;2.90;1.33;;;;;;;;;;6097745;19;20740;-69
2023/01/17 04:02:16;;;;;;;5.97;1.30;;;;;;;;;;6099646;19;20018;-70
2023/01/17 04:04:21;;;;;;;7.35;1.70;;;;;;;;;;6098597;19;20301;-70
2023/01/17 04:06:27;;;;;;;4.30;1.40;;;;;;;;;;6100597;19;20014;-70
2023/01/17 04:08:32;;;;;;;2.70;1.27;;;;;;;;;;6099566;19;20017;-70
2023/01/17 04:10:40;;;;;;;5.70;1.75;;;;;;;;;;6101094;19;20019;-70
2023/01/17 04:12:45;;;;;;;2.40;1.30;;;;;;;;;;6099874;19;20029;-70
2023/01/17 04:14:49;;;;;;;2.30;1.10;;;;;;;;;;6100438;19;20195;-72
2023/01/17 04:16:54;;;;;;;1.10;1.10;;;;;;;;;;6100398;19;20018;-69
2023/01/17 04:18:59;;;;;;;3.55;1.30;;;;;;;;;;6098311;19;20019;-69
2023/01/17 04:21:05;;;;;;;3.85;1.48;;;;;;;;;;6102964;19;20440;-69
2023/01/17 04:23:11;;;;;;;9.00;1.88;;;;;;;;;;6097085;19;20038;-72
2023/01/17 04:25:16;;;;;;;2.63;1.27;;;;;;;;;;6099770;19;20499;-70
2023/01/17 04:27:24;;;;;;;5.10;1.73;;;;;;;;;;6099162;19;20018;-71
2023/01/17 04:29:29;;;;;;;7.90;1.40;;;;;;;;;;6098768;19;20010;-71
2023/01/17 04:31:34;;;;;;;2.60;2.05;;;;;;;;;;6099182;19;20025;-70
2023/01/17 04:33:39;;;;;;;3.65;1.33;;;;;;;;;;6104411;19;20018;-71
2023/01/17 04:35:47;;;;;;;3.47;1.77;;;;;;;;;;6104757;19;20096;-71
2023/01/17 04:37:52;;;;;;;3.20;1.83;;;;;;;;;;6105097;19;20078;-71
2023/01/17 04:39:57;;;;;;;6.15;1.40;;;;;;;;;;6106612;19;20028;-72
2023/01/17 04:42:04;;;;;;;4.00;1.45;;;;;;;;;;6103221;19;20046;-70
2023/01/17 04:44:14;;;;;;;3.50;1.45;;;;;;;;;;6103733;19;20011;-72
2023/01/17 04:46:19;;;;;;;3.38;1.38;;;;;;;;;;6105554;19;20086;-72
2023/01/17 04:48:24;;;;;;;6.07;1.42;;;;;;;;;;6104933;19;20383;-71
2023/01/17 04:50:31;;;;;;;5.55;1.85;;;;;;;;;;6106385;19;20089;-70
2023/01/17 04:52:36;;;;;;;5.22;1.48;;;;;;;;;;6103275;19;20010;-71
2023/01/17 04:54:41;;;;;;;2.47;1.38;;;;;;;;;;6103954;19;20029;-71
2023/01/17 04:56:46;;;;;;;5.70;2.10;;;;;;;;;;6102548;19;20015;-70
2023/01/17 04:58:51;;;;;;;6.68;1.73;;;;;;;;;;6103827;19;20018;-70
2023/01/17 05:01:03;;;;;;;6.28;2.45;;;;;;;;;;6104625;19;20017;-69
2023/01/17 05:03:08;;;;;;;4.65;2.13;;;;;;;;;;6103295;19;20053;-70
2023/01/17 05:05:12;;;;;;;4.25;2.08;;;;;;;;;;6105059;19;20106;-70
2023/01/17 05:07:17;;;;;;;6.30;2.00;;;;;;;;;;6106077;19;20019;-71
2023/01/17 05:09:22;;;;;;;7.75;1.75;;;;;;;;;;6104151;19;20006;-70
2023/01/17 05:11:27;;;;;;;8.13;1.75;;;;;;;;;;6104179;19;20027;-70
2023/01/17 05:13:32;;;;;;;6.57;1.67;;;;;;;;;;6104247;19;20018;-70
2023/01/17 05:15:38;;;;;;;2.45;1.73;;;;;;;;;;6102893;19;20046;-70
2023/01/17 05:17:45;;;;;;;3.67;1.73;;;;;;;;;;6100269;19;20360;-69
2023/01/17 05:19:50;;;;;;;4.88;1.92;;;;;;;;;;6104545;19;20674;-70
2023/01/17 05:22:02;;;;;;;4.07;1.63;;;;;;;;;;6105626;19;20481;-70
2023/01/17 05:24:10;;;;;;;5.88;1.90;;;;;;;;;;6104495;19;20574;-70
2023/01/17 05:26:14;;;;;;;4.80;1.65;;;;;;;;;;6105483;19;20006;-70
2023/01/17 05:28:19;;;;;;;4.65;2.00;;;;;;;;;;6104765;19;20034;-70
2023/01/17 05:30:24;;;;;;;3.13;2.08;;;;;;;;;;6105094;19;20062;-70
2023/01/17 05:32:29;;;;;;;4.22;1.63;;;;;;;;;;6104788;19;20025;-71
2023/01/17 05:34:37;;;;;;;10.93;2.05;;;;;;;;;;6103948;19;20760;-71
2023/01/17 05:36:45;;;;;;;3.08;1.63;;;;;;;;;;6104527;19;20018;-71
2023/01/17 05:38:49;;;;;;;4.03;1.65;;;;;;;;;;6107037;19;20018;-70
2023/01/17 05:40:54;;;;;;;2.45;1.60;;;;;;;;;;6105832;19;20027;-72
2023/01/17 05:43:01;;;;;;;3.50;1.42;;;;;;;;;;6103363;19;20006;-72
2023/01/17 05:45:08;;;;;;;5.00;2.05;;;;;;;;;;6102979;19;20368;-71
2023/01/17 05:47:16;;;;;;;8.18;2.13;;;;;;;;;;6103040;19;20049;-72
2023/01/17 05:49:21;;;;;;;6.25;1.80;;;;;;;;;;6104606;19;20019;-72
2023/01/17 05:51:28;;;;;;;3.15;1.80;;;;;;;;;;6102975;19;20018;-72
2023/01/17 05:53:35;;;;;;;7.57;2.08;;;;;;;;;;6102122;19;20003;-72
2023/01/17 05:55:42;;;;;;;10.93;2.10;;;;;;;;;;6104616;19;20006;-70
2023/01/17 05:57:47;;;;;;;2.88;1.60;;;;;;;;;;6106511;19;20527;-70
2023/01/17 05:59:51;;;;;;;4.32;1.75;;;;;;;;;;6103621;19;20017;-70
2023/01/17 06:01:56;;;;;;;8.82;2.45;;;;;;;;;;6100316;19;20010;-70
2023/01/17 06:04:04;;;;;;;7.40;2.05;;;;;;;;;;6102104;19;20019;-70
2023/01/17 06:06:09;;;;;;;3.28;1.45;;;;;;;;;;6105154;19;20014;-70
2023/01/17 06:08:16;;;;;;;3.28;1.73;;;;;;;;;;6103624;19;20014;-70
2023/01/17 06:10:22;;;;;;;5.22;1.92;;;;;;;;;;6103989;19;20712;-70
2023/01/17 06:12:27;;;;;;;6.22;1.75;;;;;;;;;;6101837;19;20018;-71
2023/01/17 06:14:35;;;;;;;3.63;1.63;;;;;;;;;;6100919;19;20002;-71
2023/01/17 06:16:40;;;;;;;3.47;1.60;;;;;;;;;;6103808;19;20787;-70
2023/01/17 06:18:45;;;;;;;5.15;1.63;;;;;;;;;;6106692;19;20027;-70
2023/01/17 06:20:54;;;;;;;2.28;1.60;;;;;;;;;;6103367;19;20110;-71
2023/01/17 06:23:04;;;;;;;3.42;1.60;;;;;;;;;;6104343;19;20017;-71
2023/01/17 06:25:12;;;;;;;3.88;1.65;;;;;;;;;;6101637;19;20007;-70
2023/01/17 06:27:17;;;;;;;6.78;1.98;;;;;;;;;;6104963;19;20311;-71
2023/01/17 06:29:22;;;;;;;5.85;1.48;;;;;;;;;;6103584;19;20021;-71
2023/01/17 06:31:27;;;;;;;3.25;1.73;;;;;;;;;;6104865;19;20063;-71
2023/01/17 06:33:32;;;;;;;4.28;1.48;;;;;;;;;;6105144;19;20007;-71
2023/01/17 06:35:41;;;;;;;2.58;1.70;;;;;;;;;;6106401;19;20825;-71
2023/01/17 06:37:46;;;;;;;5.22;1.60;;;;;;;;;;6100604;19;20014;-69
2023/01/17 06:39:51;;;;;;;2.53;1.50;;;;;;;;;;6104816;19;20006;-72
2023/01/17 06:41:59;;;;;;;4.80;1.73;;;;;;;;;;6105860;19;20014;-71
2023/01/17 06:44:07;;;;;;;3.15;1.90;;;;;;;;;;6106809;19;21023;-72
2023/01/17 06:46:12;;;;;;;2.97;1.60;;;;;;;;;;6103341;19;20579;-72
2023/01/17 06:48:17;;;;;;;6.18;1.95;;;;;;;;;;6102840;19;20010;-72
2023/01/17 06:50:21;;;;;;;4.82;1.58;;;;;;;;;;6102125;19;20102;-71
2023/01/17 06:52:26;;;;;;;4.60;1.75;;;;;;;;;;6104308;19;20031;-70
2023/01/17 06:54:34;;;;;;;2.97;1.95;;;;;;;;;;6100973;19;20018;-70
2023/01/17 06:56:39;;;;;;;4.97;2.13;;;;;;;;;;6102196;19;20043;-71
2023/01/17 06:58:50;;;;;;;4.00;1.67;;;;;;;;;;6102529;19;20069;-70
2023/01/17 07:00:55;;;;;;;1.83;1.70;;;;;;;;;;6102451;19;20539;-72
2023/01/17 07:03:00;;;;;;;5.18;1.90;;;;;;;;;;6103331;19;20848;-71
2023/01/17 07:05:07;;;;;;;1.60;1.50;;;;;;;;;;6103912;19;20021;-71
2023/01/17 07:07:14;;;;;;;2.90;1.85;;;;;;;;;;6099774;19;20022;-72
2023/01/17 07:09:19;;;;;;;2.25;1.70;;;;;;;;;;6102831;19;20021;-71
2023/01/17 07:11:26;;;;;;;5.10;1.90;;;;;;;;;;6101039;19;20011;-71
2023/01/17 07:13:34;;;;;;;3.90;2.17;;;;;;;;;;6101354;19;20086;-71
2023/01/17 07:15:42;;;;;;;3.67;2.00;;;;;;;;;;6104017;19;20043;-70
2023/01/17 07:17:47;;;;;;;2.42;1.90;;;;;;;;;;6100032;19;20007;-71
2023/01/17 07:19:52;;;;;;;4.93;2.47;;;;;;;;;;6102285;19;20019;-71
2023/01/17 07:21:57;;;;;;;5.32;2.10;;;;;;;;;;6101172;19;20023;-72
2023/01/17 07:24:05;;;;;;;4.18;1.88;;;;;;;;;;6099321;19;20043;-71
2023/01/17 07:26:10;;;;;;;3.08;2.28;;;;;;;;;;6099252;19;20129;-70
2023/01/17 07:28:15;;;;;;;3.75;2.55;;;;;;;;;;6101826;19;20658;-70
2023/01/17 07:30:20;;;;;;;5.28;2.88;;;;;;;;;;6095560;19;20038;-71
2023/01/17 07:32:28;;;;;;;6.22;2.17;;;;;;;;;;6100370;19;20014;-70
2023/01/17 07:34:33;;;;;;;4.47;2.55;;;;;;;;;;6103417;19;20025;-71
2023/01/17 07:36:38;;;;;;;3.80;2.33;;;;;;;;;;6100512;19;20086;-71
2023/01/17 07:38:43;;;;;;;2.67;1.90;;;;;;;;;;6102569;19;20081;-71
2023/01/17 07:40:48;;;;;;;3.75;2.13;;;;;;;;;;6105306;19;20100;-70
2023/01/17 07:42:53;;;;;;;3.92;2.00;;;;;;;;;;6103468;19;20094;-70
2023/01/17 07:44:59;;;;;;;5.47;2.30;;;;;;;;;;6103753;19;20035;-72
2023/01/17 07:47:04;;;;;;;2.95;2.20;;;;;;;;;;6104483;19;20002;-70
2023/01/17 07:49:13;;;;;;;2.55;2.08;;;;;;;;;;6102134;19;20018;-73
2023/01/17 07:51:18;;;;;;;6.35;2.40;;;;;;;;;;6102685;19;20099;-73
2023/01/17 07:53:24;;;;;;;2.53;2.20;;;;;;;;;;6102352;19;20022;-72
2023/01/17 07:55:29;;;;;;;4.32;2.33;;;;;;;;;;6103913;19;20003;-71
2023/01/17 07:57:34;;;;;;;4.32;2.55;;;;;;;;;;6102891;19;20013;-70
2023/01/17 07:59:39;;;;;;;4.63;2.70;;;;;;;;;;6102172;19;20014;-71
2023/01/17 08:01:47;;;;;;;7.38;2.72;;;;;;;;;;6102586;19;20015;-72
2023/01/17 08:03:53;;;;;;;5.78;2.97;;;;;;;;;;6101882;19;20078;-72
2023/01/17 08:06:04;;;;;;;3.83;2.30;;;;;;;;;;6100816;19;20023;-72
2023/01/17 08:08:09;;;;;;;4.18;2.28;;;;;;;;;;6106438;19;20010;-71
2023/01/17 08:10:16;;;;;;;6.57;2.33;;;;;;;;;;6108468;19;20451;-71
2023/01/17 08:12:21;;;;;;;3.40;2.20;;;;;;;;;;6107350;19;20019;-71
2023/01/17 08:14:26;;;;;;;8.00;3.17;;;;;;;;;;6105757;19;20025;-71
2023/01/17 08:16:34;;;;;;;7.03;2.55;;;;;;;;;;6109244;19;20014;-71
2023/01/17 08:18:39;;;;;;;8.93;2.50;;;;;;;;;;6108818;19;20017;-72
2023/01/17 08:20:46;;;;;;;6.78;3.20;;;;;;;;;;6105620;19;20010;-72
2023/01/17 08:22:54;;;;;;;5.53;2.50;;;;;;;;;;6104108;19;20035;-71
2023/01/17 08:24:59;;;;;;;4.65;2.35;;;;;;;;;;6104812;19;20031;-72
2023/01/17 08:27:04;;;;;;;5.03;2.08;;;;;;;;;;6106375;19;20748;-72
2023/01/17 08:29:09;;;;;;;6.40;2.50;;;;;;;;;;6103239;19;20015;-71
2023/01/17 08:31:16;;;;;;;2.55;2.03;;;;;;;;;;6106998;19;20483;-72
2023/01/17 08:33:21;;;;;;;5.15;2.83;;;;;;;;;;6107198;19;20010;-72
2023/01/17 08:35:26;;;;;;;4.05;2.58;;;;;;;;;;6105076;19;20022;-71
2023/01/17 08:37:36;;;;;;;5.47;3.17;;;;;;;;;;6105989;19;20039;-72
2023/01/17 08:39:46;;;;;;;4.35;2.50;;;;;;;;;;6107473;19;20015;-71
2023/01/17 08:41:51;;;;;;;5.93;2.92;;;;;;;;;;6106941;19;20015;-72
2023/01/17 08:43:56;;;;;;;6.25;2.88;;;;;;;;;;6103172;19;20102;-74
2023/01/17 08:46:05;;;;;;;7.28;2.58;;;;;;;;;;6107114;19;20018;-73
2023/01/17 08:48:10;;;;;;;4.35;2.60;;;;;;;;;;6104520;19;20063;-72
2023/01/17 08:50:19;;;;;;;5.70;3.22;;;;;;;;;;6108432;19;20446;-71
2023/01/17 08:52:24;;;;;;;6.45;3.35;;;;;;;;;;6106965;19;20018;-73
2023/01/17 08:54:33;;;;;;;5.80;3.67;;;;;;;;;;6107997;19;20094;-71
2023/01/17 08:56:42;;;;;;;5.50;3.08;;;;;;;;;;6107484;19;20019;-72
2023/01/17 08:58:47;;;;;;;4.78;3.42;;;;;;;;;;6106015;19;20014;-71
2023/01/17 09:00:51;;;;;;;9.52;3.78;;;;;;;;;;6104467;19;20015;-72
2023/01/17 09:02:56;;;;;;;7.30;3.45;;;;;;;;;;6104233;19;20018;-71
2023/01/17 09:05:03;;;;;;;8.85;3.58;;;;;;;;;;6105946;19;20038;-73
2023/01/17 09:07:09;;;;;;;9.75;4.03;;;;;;;;;;6100330;19;20037;-71
2023/01/17 09:09:13;;;;;;;11.88;3.78;;;;;;;;;;6105354;19;20575;-72
2023/01/17 09:11:19;;;;;;;10.75;4.57;;;;;;;;;;6106161;19;20035;-72
2023/01/17 09:13:26;;;;;;;8.02;3.97;;;;;;;;;;6104533;19;20036;-71
2023/01/17 09:15:34;;;;;;;10.95;4.57;;;;;;;;;;6105758;19;20043;-72
2023/01/17 09:17:39;;;;;;;6.72;3.85;;;;;;;;;;6104333;19;20011;-72
2023/01/17 09:19:47;;;;;;;8.82;4.60;;;;;;;;;;6102800;19;20102;-72
2023/01/17 09:21:58;;;;;;;11.25;4.47;;;;;;;;;;6107460;19;20024;-72
2023/01/17 09:24:03;;;;;;;11.00;4.88;;;;;;;;;;6106985;19;20354;-72
2023/01/17 09:26:08;;;;;;;7.93;4.30;;;;;;;;;;6106802;19;20031;-71
2023/01/17 09:28:18;;;;;;;7.75;4.10;;;;;;;;;;6105448;19;20014;-73
2023/01/17 09:30:26;;;;;;;8.98;4.55;;;;;;;;;;6105635;19;20014;-72
2023/01/17 09:32:33;;;;;;;8.45;3.92;;;;;;;;;;6103451;19;20027;-72
2023/01/17 09:34:38;;;;;;;14.65;5.00;;;;;;;;;;6103207;19;20022;-72
2023/01/17 09:36:46;;;;;;;11.85;5.13;;;;;;;;;;6104005;19;20015;-72
2023/01/17 09:38:51;;;;;;;9.38;4.15;;;;;;;;;;6104810;19;20021;-72
2023/01/17 09:40:56;;;;;;;13.95;4.75;;;;;;;;;;6104771;19;20021;-73
2023/01/17 09:43:04;;;;;;;7.90;4.78;;;;;;;;;;6106136;19;20103;-73
2023/01/17 09:45:14;;;;;;;9.40;4.57;;;;;;;;;;6101768;19;20038;-72
2023/01/17 09:47:38;;;;;;;11.30;5.43;;;;;;;;;;6107800;19;20015;-74
2023/01/17 09:49:44;;;;;;;10.38;5.35;;;;;;;;;;6103892;19;20014;-72
2023/01/17 09:51:49;;;;;;;8.38;4.20;;;;;;;;;;6104982;19;20230;-72
2023/01/17 09:53:55;;;;;;;8.25;4.32;;;;;;;;;;6106628;19;20021;-74
2023/01/17 09:56:02;;;;;;;9.13;4.50;;;;;;;;;;6104828;19;20078;-72
2023/01/17 09:58:10;;;;;;;7.97;3.85;;;;;;;;;;6105606;19;20018;-73
2023/01/17 10:00:30;;;;;;;8.68;3.92;;;;;;;;;;6104095;19;20020;-73
2023/01/17 10:03:00;;;;;;;14.13;4.57;;;;;;;;;;6103057;19;20332;-71
2023/01/17 10:05:38;;;;;;;9.25;4.32;;;;;;;;;;6104264;19;20025;-71
2023/01/17 10:08:00;;;;;;;8.85;3.80;;;;;;;;;;6096698;19;20006;-72
2023/01/17 10:10:17;;;;;;;8.52;4.03;;;;;;;;;;6104312;19;20033;-71
2023/01/17 10:12:27;;;;;;;9.45;4.18;;;;;;;;;;6102682;19;20020;-71
2023/01/17 10:14:51;;;;;;;6.80;4.13;;;;;;;;;;6106001;19;20042;-71
2023/01/17 10:17:01;;;;;;;11.18;4.75;;;;;;;;;;6103307;19;20661;-72
2023/01/17 10:19:16;;;;;;;6.00;3.03;;;;;;;;;;6105260;19;20006;-72
2023/01/17 10:21:25;;;;;;;5.78;3.28;;;;;;;;;;6103026;19;20022;-72
2023/01/17 10:23:48;;;;;;;6.55;3.28;;;;;;;;;;6104301;19;20014;-71
2023/01/17 10:25:54;;;;;;;6.70;3.05;;;;;;;;;;6106029;19;20540;-71
2023/01/17 10:28:00;;;;;;;4.43;2.88;;;;;;;;;;6106046;19;20409;-72
2023/01/17 10:30:17;;;;;;;6.75;3.22;;;;;;;;;;6105697;19;20031;-72
2023/01/17 10:32:26;;;;;;;6.10;3.05;;;;;;;;;;6103516;19;20066;-70
2023/01/17 10:34:44;;;;;;;4.00;2.40;;;;;;;;;;6106952;19;20019;-72
2023/01/17 10:36:53;;;;;;;5.43;2.70;;;;;;;;;;6105665;19;20496;-71
2023/01/17 10:39:02;;;;;;;7.65;2.70;;;;;;;;;;6105231;19;21018;-73
2023/01/17 10:41:10;;;;;;;6.20;2.90;;;;;;;;;;6103517;19;20042;-71
2023/01/17 10:43:19;;;;;;;8.52;2.97;;;;;;;;;;6103284;19;20020;-73
2023/01/17 10:45:27;;;;;;;7.65;3.05;;;;;;;;;;6105162;19;20644;-72
2023/01/17 10:47:36;;;;;;;7.32;3.03;;;;;;;;;;6105158;19;20018;-73
2023/01/17 10:49:47;;;;;;;6.88;2.97;;;;;;;;;;6104808;19;20017;-73
2023/01/17 10:52:15;;;;;;;4.97;2.97;;;;;;;;;;6105077;19;20018;-73
2023/01/17 10:54:31;;;;;;;7.32;3.13;;;;;;;;;;6105974;19;20464;-73
2023/01/17 10:56:36;;;;;;;5.93;2.90;;;;;;;;;;6105806;19;20098;-73
2023/01/17 10:58:49;;;;;;;5.68;3.30;;;;;;;;;;6105866;19;20007;-73
2023/01/17 11:00:57;;;;;;;6.88;3.00;;;;;;;;;;6104367;19;20702;-72
2023/01/17 11:03:03;;;;;;;5.93;2.67;;;;;;;;;;6103884;19;20773;-73
2023/01/17 11:05:21;;;;;;;8.00;3.00;;;;;;;;;;6100281;19;20466;-72
2023/01/17 11:07:28;;;;;;;4.65;3.33;;;;;;;;;;6104128;19;20046;-71
2023/01/17 11:09:40;;;;;;;5.95;3.45;;;;;;;;;;6102739;19;20039;-72
2023/01/17 11:11:50;;;;;;;5.45;3.13;;;;;;;;;;6104810;19;20642;-73
2023/01/17 11:13:56;;;;;;;7.18;2.88;;;;;;;;;;6105067;19;20024;-72
2023/01/17 11:16:05;;;;;;;6.72;2.63;;;;;;;;;;6103096;19;20010;-72
2023/01/17 11:18:17;;;;;;;6.68;2.53;;;;;;;;;;6101716;19;20442;-74
2023/01/17 11:20:34;;;;;;;4.95;2.40;;;;;;;;;;6102391;19;20011;-73
2023/01/17 11:22:39;;;;;;;4.25;2.05;;;;;;;;;;6105217;19;20624;-71
2023/01/17 11:24:50;;;;;;;5.85;2.40;;;;;;;;;;6102779;19;20421;-73
2023/01/17 11:26:55;;;;;;;5.80;2.30;;;;;;;;;;6100724;19;20026;-73
2023/01/17 11:29:28;;;;;;;2.17;1.95;;;;;;;;;;6102709;19;20038;-73
2023/01/17 11:31:33;;;;;;;5.45;1.70;;;;;;;;;;6101812;19;20018;-72
2023/01/17 11:33:44;;;;;;;5.38;2.53;;;;;;;;;;6102492;19;20454;-73
2023/01/17 11:35:51;;;;;;;2.92;1.90;;;;;;;;;;6081539;19;20019;-74
2023/01/17 11:38:05;;;;;;;2.85;1.73;;;;;;;;;;6102686;19;20348;-73
2023/01/17 11:40:15;;;;;;;2.30;1.65;;;;;;;;;;6102610;19;20034;-73
2023/01/17 11:42:34;;;;;;;1.65;1.55;;;;;;;;;;6104788;19;20047;-73
2023/01/17 11:44:39;;;;;;;5.18;1.50;;;;;;;;;;6108841;19;20019;-73
2023/01/17 11:46:46;;;;;;;4.07;2.15;;;;;;;;;;6110542;19;20010;-72
2023/01/17 11:48:53;;;;;;;2.45;1.75;;;;;;;;;;6109124;19;20015;-73
2023/01/17 11:51:02;;;;;;;2.95;1.70;;;;;;;;;;6108290;19;20006;-73
2023/01/17 11:53:08;;;;;;;2.30;1.70;;;;;;;;;;6101960;19;20019;-72
2023/01/17 11:55:17;;;;;;;5.78;2.50;;;;;;;;;;6110201;19;20018;-74
2023/01/17 11:57:25;;;;;;;2.88;1.73;;;;;;;;;;6108822;19;20010;-73
2023/01/17 11:59:36;;;;;;;2.72;1.63;;;;;;;;;;6109176;19;20035;-73
2023/01/17 12:01:47;;;;;;;2.22;1.85;;;;;;;;;;6107935;19;20024;-74
2023/01/17 12:04:01;;;;;;;2.75;1.48;;;;;;;;;;6109280;19;20054;-73
2023/01/17 12:06:16;;;;;;;1.75;1.40;;;;;;;;;;6108652;19;20006;-73
2023/01/17 12:08:34;;;;;;;4.63;2.25;;;;;;;;;;6106888;19;20077;-73
2023/01/17 12:10:46;;;;;;;2.13;1.65;;;;;;;;;;6107275;19;20353;-73
2023/01/17 12:15:26;;;;;;;4.18;2.67;;;;;;;;;;6105113;19;20077;-73
2023/01/17 12:17:39;;;;;;;3.38;1.67;;;;;;;;;;6109188;19;20010;-74
2023/01/17 12:19:59;;;;;;;2.88;1.63;;;;;;;;;;6108936;19;20014;-74
2023/01/17 12:22:28;;;;;;;1.83;1.50;;;;;;;;;;6106639;19;20007;-74
2023/01/17 12:24:50;;;;;;;4.20;1.70;;;;;;;;;;6106994;19;20032;-74
2023/01/17 12:27:01;;;;;;;1.83;1.35;;;;;;;;;;6107456;19;20376;-73
2023/01/17 12:29:43;;;;;;;2.42;1.42;;;;;;;;;;6110262;19;20724;-73
2023/01/17 12:31:53;;;;;;;1.60;1.50;;;;;;;;;;6105364;19;20039;-71
2023/01/17 12:34:04;;;;;;;3.80;1.52;;;;;;;;;;6107978;19;20027;-71
2023/01/17 12:36:31;;;;;;;1.70;1.60;;;;;;;;;;6107651;19;20017;-73
2023/01/17 12:38:41;;;;;;;2.42;1.25;;;;;;;;;;6108260;19;20003;-73
2023/01/17 12:40:49;;;;;;;1.83;1.52;;;;;;;;;;6106460;19;20007;-73
2023/01/17 12:42:56;;;;;;;3.08;1.50;;;;;;;;;;6106383;19;20214;-73
2023/01/17 12:45:06;;;;;;;2.45;1.63;;;;;;;;;;6106680;19;20339;-72
2023/01/17 12:47:13;;;;;;;3.58;1.80;;;;;;;;;;6103258;19;20015;-74
2023/01/17 12:49:25;;;;;;;1.85;1.55;;;;;;;;;;6108113;19;20043;-74
2023/01/17 12:51:32;;;;;;;2.42;1.40;;;;;;;;;;6106921;19;20366;-73
2023/01/17 12:53:43;;;;;;;3.05;1.50;;;;;;;;;;6102914;19;20010;-71
2023/01/17 12:55:54;;;;;;;3.08;1.27;;;;;;;;;;6108340;19;20021;-73
2023/01/17 12:58:02;;;;;;;1.73;1.30;;;;;;;;;;6108548;19;20011;-72
2023/01/17 13:00:18;;;;;;;3.35;1.55;;;;;;;;;;6107581;19;20086;-73
2023/01/17 13:02:30;;;;;;;1.73;1.10;;;;;;;;;;6106967;19;20714;-71
2023/01/17 13:04:39;;;;;;;3.58;1.75;;;;;;;;;;6108228;19;20038;-71
2023/01/17 13:07:09;;;;;;;3.28;1.42;;;;;;;;;;6106815;19;20070;-70
2023/01/17 13:09:17;;;;;;;;;;;;;;;;;;6104535;19;20010;-71
2023/01/17 13:11:27;;;;;;;1.10;1.00;;;;;;;;;;6107229;19;19923;-71
2023/01/17 13:13:34;;;;;;;2.90;1.75;;;;;;;;;;6104486;19;20096;-72
2023/01/17 13:15:41;;;;;;;2.88;1.55;;;;;;;;;;6106076;19;20026;-73
2023/01/17 13:17:49;;;;;;;2.28;1.42;;;;;;;;;;6108033;19;20010;-74
2023/01/17 13:19:59;;;;;;;2.17;1.25;;;;;;;;;;6106546;19;20250;-75
2023/01/17 13:22:07;;;;;;;1.67;1.13;;;;;;;;;;6103872;19;20019;-73
2023/01/17 13:24:32;;;;;;;4.45;1.33;;;;;;;;;;6107976;19;20078;-73
2023/01/17 13:26:47;;;;;;;3.25;1.63;;;;;;;;;;6106953;19;20501;-73
2023/01/17 13:28:57;;;;;;;3.47;2.03;;;;;;;;;;6104611;19;20027;-73
2023/01/17 13:31:18;;;;;;;3.05;1.77;;;;;;;;;;6107220;19;20036;-72
2023/01/17 13:33:40;;;;;;;2.67;1.70;;;;;;;;;;6101125;19;20034;-73
2023/01/17 13:35:53;;;;;;;1.92;1.58;;;;;;;;;;6107627;19;20058;-73
2023/01/17 13:38:19;;;;;;;2.03;1.40;;;;;;;;;;6105645;19;20090;-72
2023/01/17 13:40:36;;;;;;;1.45;1.35;;;;;;;;;;6105486;19;20111;-74
2023/01/17 13:42:49;;;;;;;3.15;1.70;;;;;;;;;;6106727;19;20094;-74
2023/01/17 13:44:55;;;;;;;2.72;1.75;;;;;;;;;;6108311;19;20014;-75
2023/01/17 13:47:03;;;;;;;2.03;1.30;;;;;;;;;;6108164;19;20047;-75
2023/01/17 13:49:23;;;;;;;1.55;1.20;;;;;;;;;;6105597;19;20011;-73
2023/01/17 13:52:09;;;;;;;2.17;1.50;;;;;;;;;;6106265;19;20030;-74
2023/01/17 13:54:31;;;;;;;1.92;1.30;;;;;;;;;;6106267;19;20017;-73
2023/01/17 13:56:39;;;;;;;3.00;1.60;;;;;;;;;;6106736;19;20079;-73
2023/01/17 13:59:01;;;;;;;1.38;1.20;;;;;;;;;;6106519;19;20015;-74
2023/01/17 14:01:06;;;;;;;2.13;1.40;;;;;;;;;;6103917;19;20015;-74
2023/01/17 14:03:13;;;;;;;1.63;1.52;;;;;;;;;;6101624;19;20014;-75
2023/01/17 14:05:20;;;;;;;3.08;1.45;;;;;;;;;;6109327;19;20089;-75
2023/01/17 14:07:27;;;;;;;4.88;1.88;;;;;;;;;;6103423;19;20018;-75
2023/01/17 14:09:43;;;;;;;1.42;1.27;;;;;;;;;;6107511;19;20249;-74
2023/01/17 14:11:59;;;;;;;2.10;1.42;;;;;;;;;;6103534;19;20014;-74
2023/01/17 14:14:35;;;;;;;3.17;1.40;;;;;;;;;;6104980;19;20011;-75
2023/01/17 14:16:40;;;;;;;1.40;1.30;;;;;;;;;;6105074;19;20027;-74
2023/01/17 14:18:45;;;;;;;1.60;1.33;;;;;;;;;;6104537;19;20328;-74